Asbestos, Canada
Current Conditions -  °F | °C
As of 12:09 PM on Sunday 21 Dec 2014 (Local Time) from CYSC Reporting Station
Scattered Clouds Scattered Clouds  
Wind Chill: 14°   Ceiling: Unl
Heat Index: 14°   Visibility: 9mi
Dew Point: 14°   Wind: 2mph
Humidity: 100%   Direction: NA
Pressure: 30.31"   Gusts: NA
Location:  45.78°N, 71.93°W
Report Text: CYSC 211709Z AUTO VRB02KT 9SM SCT008 M10/M10 A3031 RMK SLP283
Loading
Personal Weather Stations






























Interactive Weather Map New forecast layout! Learn more

10-Day Weather Forecast

Advertisements
Track Severe Weather on mobile